Aeroporto :
LOGIN :

Iscrizione | Disclaimer

   EN    FR    IT 

 










Sommario :    VFR   VFR Marginale   IFR   IFR Intensivo   IFR Molto Intensivo
Visibilità : 
Base nubi : 
>= 8 km
>= 3000ft
5 / 8 km
1000 / 3000 ft
1500m / 5 km
500 / 1000 ft
800 / 1500m
200 / 500 ft
< 800m
< 200 ft
Simboli :   Temporali  Nebbia  Neve Forte  Precipitazioni Forti  Vento > 20 kt
SIGMETs :   Varie  Temporali  Ghiacco  Turbolenza  Onda orograficha  Ceneri Vulcaniche






- Altitudine del aeroporto : 195 ft


LFMY - Salon de Provence

ULTIMO METAR :
  • 011830Z AUTO 20003KT 160V240 CAVOK 10/03 Q1016

METARs OBSOLETI :
  • 011800Z AUTO 20006KT 130V230 CAVOK 11/03 Q1015
  • 011730Z AUTO 19007KT 160V220 CAVOK 11/03 Q1016
  • 011700Z AUTO 19012KT CAVOK 12/03 Q1016
  • 011630Z AUTO 19011KT CAVOK 13/04 Q1016
  • 011600Z AUTO 19010KT CAVOK 13/03 Q1016

TAF TAF LFMY
Valido dal 01 a 09 ore il 02 a 09 ore UTC


010800Z 0109/0209 11012KT CAVOK
BECMG 0110/0112 20010KT
BECMG 0118/0120 VRB02KT



MetMap, La meteo Aeronautica in un colpo d'occhio ! - Copyright ORBIFLY Dicembre 2007 - Disclaimer

ORBIFLY MET'MAP TEAM :

Programmazione e sviluppo : Alexandra Zaïnal
Concezione : Baudouin d'Aumeries
Aiuto per la programmazione : Marc-Olivier Méhu
Supporto tecnico e logistico : Manuel Goepfert
Aiuto per la traduzione : Arnaldo La Scala

Contatto : metmap@orbifly.com




FONTI E CREDITI :

   NOAA